Terminal Aerodrome Forecast
Issued by NWS Memphis, TN

Home | Current Version | Previous Version | Text Only | Print | Product List | Glossary On
Versions: 1 2 3 4 5 6 7 8 9 10 11 12 13 14 15
760
FTUS44 KMEG 222320
TAFMKL
TAF
KMKL 222320Z 2300/2324 16004KT P6SM SCT040 SCT250
     FM230800 VRB02KT 4SM BR SCT012
      TEMPO 2311/2314 1SM BR BKN012
     FM231400 19005KT 6SM BR OVC015
     FM231700 19008KT P6SM BKN025
     FM232000 19010KT P6SM BKN035=

USA.gov is the U.S. government's official web portal to all federal, state and local government web resources and services.